Time;durP1;ratioP1;P1;durP2;ratioP2;P2;SDS_P1;SDS_P2;PMS_P1;PMS_P2;Temp;Humidity;BMP_temperature;BMP_pressure;BME280_temperature;BME280_humidity;BME280_pressure;Samples;Min_cycle;Max_cycle;Signal;HPM_P1;HPM_P2
2022/07/11 00:02:01;;;;;;;;;;;;;;;16.61;100.00;102472.41;5074717;28;20290;-58
2022/07/11 00:04:26;;;;;;;;;;;;;;;16.70;100.00;102466.63;5074740;28;19947;-59
2022/07/11 00:06:51;;;;;;;;;;;;;;;16.82;100.00;102465.19;5074687;28;20372;-59
2022/07/11 00:09:17;;;;;;;;;;;;;;;16.89;100.00;102468.44;5074313;28;19947;-59
2022/07/11 00:11:42;;;;;;;;;;;;;;;16.94;100.00;102465.59;5074414;28;20220;-57
2022/07/11 00:14:07;;;;;;;;;;;;;;;16.94;100.00;102473.63;5074237;28;19920;-58
2022/07/11 00:16:33;;;;;;;;;;;;;;;16.96;100.00;102467.28;5074374;28;20362;-59
2022/07/11 00:18:58;;;;;;;;;;;;;;;16.99;100.00;102468.94;5056443;28;20274;-59
2022/07/11 00:21:24;;;;;;;;;;;;;;;16.98;100.00;102461.84;5074157;28;19922;-59
2022/07/11 00:23:49;;;;;;;;;;;;;;;16.98;100.00;102464.53;5074453;28;20003;-59
2022/07/11 00:26:14;;;;;;;;;;;;;;;17.01;100.00;102467.94;5073882;28;19921;-59
2022/07/11 00:28:39;;;;;;;;;;;;;;;17.05;100.00;102460.63;5074231;28;19971;-59
2022/07/11 00:31:07;;;;;;;;;;;;;;;17.07;100.00;102456.06;5074031;28;19917;-59
2022/07/11 00:33:32;;;;;;;;;;;;;;;17.07;100.00;102458.72;5073872;28;19923;-57
2022/07/11 00:35:58;;;;;;;;;;;;;;;17.03;100.00;102450.00;5039498;28;19912;-58
2022/07/11 00:38:23;;;;;;;;;;;;;;;17.07;100.00;102447.16;5056032;28;19970;-58
2022/07/11 00:40:48;;;;;;;;;;;;;;;17.08;100.00;102456.94;5056102;28;19941;-58
2022/07/11 00:43:19;;;;;;;;;;;;;;;17.06;100.00;102448.09;5073796;28;20268;-59
2022/07/11 00:45:44;;;;;;;;;;;;;;;17.06;100.00;102457.03;5073384;28;19925;-58
2022/07/11 00:48:09;;;;;;;;;;;;;;;17.08;100.00;102452.44;5073601;28;20256;-58
2022/07/11 00:50:34;;;;;;;;;;;;;;;17.12;100.00;102453.19;5073790;28;19962;-59
2022/07/11 00:53:00;;;;;;;;;;;;;;;17.15;100.00;102456.59;5073572;28;20294;-59
2022/07/11 00:55:27;;;;;;;;;;;;;;;17.15;100.00;102450.38;5073510;28;19923;-58
2022/07/11 00:57:52;;;;;;;;;;;;;;;17.18;100.00;102444.88;5074023;28;19970;-59
2022/07/11 01:00:18;;;;;;;;;;;;;;;17.17;100.00;102451.16;5073428;28;19917;-59
2022/07/11 01:02:43;;;;;;;;;;;;;;;17.14;100.00;102445.97;5055632;28;19928;-58
2022/07/11 01:05:08;;;;;;;;;;;;;;;17.13;100.00;102458.44;5073256;28;19923;-59
2022/07/11 01:07:33;;;;;;;;;;;;;;;17.17;100.00;102448.47;5055582;28;19944;-59
2022/07/11 01:09:59;;;;;;;;;;;;;;;17.21;100.00;102458.09;5073335;28;20003;-59
2022/07/11 01:12:24;;;;;;;;;;;;;;;17.20;100.00;102457.25;5055372;28;20015;-59
2022/07/11 01:14:53;;;;;;;;;;;;;;;17.25;100.00;102459.72;5073527;28;20367;-59
2022/07/11 01:17:19;;;;;;;;;;;;;;;17.28;100.00;102450.66;5055414;28;19939;-59
2022/07/11 01:19:44;;;;;;;;;;;;;;;17.27;100.00;102465.84;5073136;28;19912;-59
2022/07/11 01:22:10;;;;;;;;;;;;;;;17.29;100.00;102455.06;5073122;28;19999;-59
2022/07/11 01:24:36;;;;;;;;;;;;;;;17.35;100.00;102452.97;5072732;28;19917;-58
2022/07/11 01:27:01;;;;;;;;;;;;;;;17.31;100.00;102448.69;5072980;28;19923;-59
2022/07/11 01:29:26;;;;;;;;;;;;;;;17.31;100.00;102451.34;5072821;28;19917;-59
2022/07/11 01:31:51;;;;;;;;;;;;;;;17.29;100.00;102455.06;5072956;28;20395;-59
2022/07/11 01:34:17;;;;;;;;;;;;;;;17.26;100.00;102460.56;5038176;28;20410;-58
2022/07/11 01:36:42;;;;;;;;;;;;;;;17.22;100.00;102450.94;5054946;28;20473;-59
2022/07/11 01:39:08;;;;;;;;;;;;;;;17.23;100.00;102456.22;5072569;28;20021;-59
2022/07/11 01:41:33;;;;;;;;;;;;;;;17.27;100.00;102455.13;5072745;28;19916;-59
2022/07/11 01:43:58;;;;;;;;;;;;;;;17.28;100.00;102461.38;5072610;28;20267;-59
2022/07/11 01:46:23;;;;;;;;;;;;;;;17.25;100.00;102465.06;5072274;28;19924;-59
2022/07/11 01:48:49;;;;;;;;;;;;;;;17.25;100.00;102456.16;5054864;28;19916;-57
2022/07/11 01:51:14;;;;;;;;;;;;;;;17.26;100.00;102453.38;5072380;28;19916;-57
2022/07/11 01:53:39;;;;;;;;;;;;;;;17.27;100.00;102452.44;5054683;28;19917;-57
2022/07/11 01:56:04;;;;;;;;;;;;;;;17.25;100.00;102450.78;5054281;28;19917;-58
2022/07/11 01:58:30;;;;;;;;;;;;;;;17.24;100.00;102452.59;5054373;28;19963;-57
2022/07/11 02:00:56;;;;;;;;;;;;;;;17.27;100.00;102451.59;5072421;28;19917;-59
2022/07/11 02:03:21;;;;;;;;;;;;;;;17.28;100.00;102446.16;5072447;28;19912;-58
2022/07/11 02:05:47;;;;;;;;;;;;;;;17.26;100.00;102445.34;5072291;28;19920;-59
2022/07/11 02:08:12;;;;;;;;;;;;;;;17.24;100.00;102443.69;5072182;28;19917;-59
2022/07/11 02:10:45;;;;;;;;;;;;;;;17.26;100.00;102442.69;5072285;28;19924;-59
2022/07/11 02:13:11;;;;;;;;;;;;;;;17.24;100.00;102436.56;5072134;28;19999;-58
2022/07/11 02:15:37;;;;;;;;;;;;;;;17.27;100.00;102443.56;5071878;28;19977;-59
2022/07/11 02:18:02;;;;;;;;;;;;;;;17.31;100.00;102440.66;5072150;28;19947;-59
2022/07/11 02:20:28;;;;;;;;;;;;;;;17.34;100.00;102447.66;5072015;28;20003;-60
2022/07/11 02:22:53;;;;;;;;;;;;;;;17.30;100.00;102435.38;5072290;28;20011;-58
2022/07/11 02:25:19;;;;;;;;;;;;;;;17.26;100.00;102442.69;5071950;28;20290;-58
2022/07/11 02:27:44;;;;;;;;;;;;;;;17.24;100.00;102441.00;5053991;28;19936;-59
2022/07/11 02:30:10;;;;;;;;;;;;;;;17.25;100.00;102435.63;5053873;28;20455;-58
2022/07/11 02:32:36;;;;;;;;;;;;;;;17.24;100.00;102438.34;5071978;28;19924;-59
2022/07/11 02:35:01;;;;;;;;;;;;;;;17.25;100.00;102434.72;5071823;28;19920;-59
2022/07/11 02:37:27;;;;;;;;;;;;;;;17.25;100.00;102442.75;5071702;28;20280;-59
2022/07/11 02:39:52;;;;;;;;;;;;;;;17.28;100.00;102448.00;5071932;28;20283;-58
2022/07/11 02:42:18;;;;;;;;;;;;;;;17.27;100.00;102441.75;5071670;28;19947;-59
2022/07/11 02:44:43;;;;;;;;;;;;;;;17.32;100.00;102444.22;5071710;28;19929;-59
2022/07/11 02:47:08;;;;;;;;;;;;;;;17.32;100.00;102441.53;5071624;28;20304;-59
2022/07/11 02:49:34;;;;;;;;;;;;;;;17.30;100.00;102438.06;5071593;28;19916;-58
2022/07/11 02:51:59;;;;;;;;;;;;;;;17.25;100.00;102442.75;5053772;28;19970;-58
2022/07/11 02:54:24;;;;;;;;;;;;;;;17.19;100.00;102439.44;5071523;28;19912;-58
2022/07/11 02:56:50;;;;;;;;;;;;;;;17.20;100.00;102430.47;5071793;28;19924;-58
2022/07/11 02:59:15;;;;;;;;;;;;;;;17.24;100.00;102436.56;5053915;28;19941;-58
2022/07/11 03:01:41;;;;;;;;;;;;;;;17.28;100.00;102437.28;5053560;28;20058;-58
2022/07/11 03:04:07;;;;;;;;;;;;;;;17.29;100.00;102434.53;5053712;28;20261;-59
2022/07/11 03:06:32;;;;;;;;;;;;;;;17.28;100.00;102442.63;5071597;28;19920;-59
2022/07/11 03:08:57;;;;;;;;;;;;;;;17.22;100.00;102437.56;5053771;28;19938;-58
2022/07/11 03:11:22;;;;;;;;;;;;;;;17.22;100.00;102445.59;5071674;28;20265;-60
2022/07/11 03:13:47;;;;;;;;;;;;;;;17.18;100.00;102440.38;5053704;28;19916;-59
2022/07/11 03:16:13;;;;;;;;;;;;;;;17.19;100.00;102430.53;5071485;28;19963;-59
2022/07/11 03:18:38;;;;;;;;;;;;;;;17.20;100.00;102440.31;5071603;28;19916;-59
2022/07/11 03:21:03;;;;;;;;;;;;;;;17.16;100.00;102434.25;5071515;28;19969;-60
2022/07/11 03:23:28;;;;;;;;;;;;;;;17.15;100.00;102432.50;5053568;28;19921;-59
2022/07/11 03:25:54;;;;;;;;;;;;;;;17.16;100.00;102434.25;5053558;28;19978;-59
2022/07/11 03:28:19;;;;;;;;;;;;;;;17.16;100.00;102444.06;5074482;28;19943;-59
2022/07/11 03:30:45;;;;;;;;;;;;;;;17.18;100.00;102439.50;5075276;28;19916;-59
2022/07/11 03:33:10;;;;;;;;;;;;;;;17.23;100.00;102444.66;5057138;28;20019;-60
2022/07/11 03:35:41;;;;;;;;;;;;;;;17.25;100.00;102446.31;5075408;28;19958;-59
2022/07/11 03:38:06;;;;;;;;;;;;;;;17.23;100.00;102441.97;5074880;28;19916;-59
2022/07/11 03:40:31;;;;;;;;;;;;;;;17.26;100.00;102447.19;5074971;28;19928;-59
2022/07/11 03:42:57;;;;;;;;;;;;;;;17.28;100.00;102443.50;5040346;28;19916;-59
2022/07/11 03:45:22;;;;;;;;;;;;;;;17.26;100.00;102450.72;5056825;28;19975;-60
2022/07/11 03:47:48;;;;;;;;;;;;;;;17.23;100.00;102444.66;5074925;28;19912;-59
2022/07/11 03:50:14;;;;;;;;;;;;;;;17.18;100.00;102447.53;5074663;28;19931;-59
2022/07/11 03:52:39;;;;;;;;;;;;;;;17.12;100.00;102451.38;5074868;28;20351;-59
2022/07/11 03:55:04;;;;;;;;;;;;;;;17.05;100.00;102447.25;5074692;28;19924;-58
2022/07/11 03:57:29;;;;;;;;;;;;;;;17.05;100.00;102449.94;5074536;28;19912;-60
2022/07/11 03:59:55;;;;;;;;;;;;;;;17.05;100.00;102444.56;5074718;28;19916;-59
2022/07/11 04:02:20;;;;;;;;;;;;;;;17.04;100.00;102451.72;5074570;28;19960;-59
2022/07/11 04:04:45;;;;;;;;;;;;;;;17.04;100.00;102449.03;5074661;28;20405;-59
2022/07/11 04:07:10;;;;;;;;;;;;;;;17.06;100.00;102456.13;5074478;28;19912;-60
2022/07/11 04:09:36;;;;;;;;;;;;;;;17.06;100.00;102453.47;5074534;28;19923;-59
2022/07/11 04:12:01;;;;;;;;;;;;;;;17.07;100.00;102450.69;5074546;28;20018;-59
2022/07/11 04:14:26;;;;;;;;;;;;;;;17.08;100.00;102448.91;5074720;28;19921;-58
2022/07/11 04:16:51;;;;;;;;;;;;;;;17.05;100.00;102460.63;5074682;28;19959;-59
2022/07/11 04:19:17;;;;;;;;;;;;;;;17.00;100.00;102449.28;5074231;28;19954;-60
2022/07/11 04:21:42;;;;;;;;;;;;;;;16.98;100.00;102449.34;5074296;28;19912;-60
2022/07/11 04:24:07;;;;;;;;;;;;;;;16.94;100.00;102449.56;5074106;28;19922;-60
2022/07/11 04:26:32;;;;;;;;;;;;;;;16.94;100.00;102447.72;5074039;28;20376;-58
2022/07/11 04:28:57;;;;;;;;;;;;;;;16.98;100.00;102451.13;5056121;28;20435;-58
2022/07/11 04:31:23;;;;;;;;;;;;;;;17.01;100.00;102453.69;5074173;28;20352;-59
2022/07/11 04:33:48;;;;;;;;;;;;;;;16.94;100.00;102442.38;5073867;28;19936;-59
2022/07/11 04:36:13;;;;;;;;;;;;;;;16.92;100.00;102438.03;5074121;28;19952;-62
2022/07/11 04:38:38;;;;;;;;;;;;;;;16.96;100.00;102437.84;5038840;28;19923;-58
2022/07/11 04:41:04;;;;;;;;;;;;;;;16.99;100.00;102443.03;5073968;28;20010;-59
2022/07/11 04:43:29;;;;;;;;;;;;;;;16.97;100.00;102436.91;5073554;28;20007;-58
2022/07/11 04:45:54;;;;;;;;;;;;;;;16.93;100.00;102438.00;5073504;28;20433;-59
2022/07/11 04:48:19;;;;;;;;;;;;;;;16.96;100.00;102447.69;5073685;28;19975;-57
2022/07/11 04:50:45;;;;;;;;;;;;;;;17.00;100.00;102439.44;5073732;28;19916;-58
2022/07/11 04:53:11;;;;;;;;;;;;;;;17.03;100.00;102447.34;5073317;28;19917;-59
2022/07/11 04:55:40;;;;;;;;;;;;;;;16.99;100.00;102440.34;5073779;28;19971;-58
2022/07/11 04:58:06;;;;;;;;;;;;;;;16.95;100.00;102444.13;5055558;28;19916;-60
2022/07/11 05:00:31;;;;;;;;;;;;;;;16.92;100.00;102448.75;5073305;28;20004;-59
2022/07/11 05:02:56;;;;;;;;;;;;;;;16.98;100.00;102459.16;5073431;28;20307;-59
2022/07/11 05:05:23;;;;;;;;;;;;;;;17.00;100.00;102451.94;5038846;28;20394;-59
2022/07/11 05:07:49;;;;;;;;;;;;;;;16.97;100.00;102457.44;5073370;28;19951;-59
2022/07/11 05:10:14;;;;;;;;;;;;;;;17.01;100.00;102459.03;5073258;28;19917;-58
2022/07/11 05:12:39;;;;;;;;;;;;;;;17.00;100.00;102466.19;5073348;28;19913;-61
2022/07/11 05:15:05;;;;;;;;;;;;;;;17.01;100.00;102465.25;5073296;28;20288;-59
2022/07/11 05:17:30;;;;;;;;;;;;;;;16.94;100.00;102474.50;5073082;28;20311;-60
2022/07/11 05:19:55;;;;;;;;;;;;;;;16.91;100.00;102463.94;5073143;28;20295;-59
2022/07/11 05:22:21;;;;;;;;;;;;;;;16.87;100.00;102471.19;5073102;28;19923;-58
2022/07/11 05:24:46;;;;;;;;;;;;;;;16.93;100.00;102482.59;5072994;28;20394;-58
2022/07/11 05:27:11;;;;;;;;;;;;;;;16.96;100.00;102482.47;5054972;28;19916;-58
2022/07/11 05:29:36;;;;;;;;;;;;;;;16.91;100.00;102485.34;5072912;28;19920;-59
2022/07/11 05:32:02;;;;;;;;;;;;;;;16.93;100.00;102486.16;5072921;28;19916;-59
2022/07/11 05:34:27;;;;;;;;;;;;;;;16.96;100.00;102494.03;5072791;28;19920;-60
2022/07/11 05:36:53;;;;;;;;;;;;;;;16.92;100.00;102487.09;5072877;28;19924;-60
2022/07/11 05:39:18;;;;;;;;;;;;;;;16.94;100.00;102487.00;5072791;28;20379;-59
2022/07/11 05:41:43;;;;;;;;;;;;;;;16.99;100.00;102485.00;5072496;28;19921;-58
2022/07/11 05:44:08;;;;;;;;;;;;;;;17.00;100.00;102492.94;5054700;28;19926;-59
2022/07/11 05:46:37;;;;;;;;;;;;;;;17.08;100.00;102495.28;5054613;28;20364;-58
2022/07/11 05:49:03;;;;;;;;;;;;;;;17.14;100.00;102491.47;5072044;28;19920;-58
2022/07/11 05:51:28;;;;;;;;;;;;;;;17.22;100.00;102488.44;5054033;28;19966;-59
2022/07/11 05:53:53;;;;;;;;;;;;;;;17.28;100.00;102494.34;5054678;28;19982;-59
2022/07/11 05:56:18;;;;;;;;;;;;;;;17.23;100.00;102492.84;5072217;28;19921;-56
2022/07/11 05:58:45;;;;;;;;;;;;;;;17.23;100.00;102498.19;5072695;28;19928;-60
2022/07/11 06:01:10;;;;;;;;;;;;;;;17.31;100.00;102491.53;5072225;28;19923;-59
2022/07/11 06:03:35;;;;;;;;;;;;;;;17.32;100.00;102501.28;5072138;28;19916;-58
2022/07/11 06:06:04;;;;;;;;;;;;;;;17.38;100.00;102494.81;5054317;28;19917;-58
2022/07/11 06:08:41;;;;;;;;;;;;;;;17.35;100.00;102490.47;5072032;28;20398;-58
2022/07/11 06:11:07;;;;;;;;;;;;;;;17.48;100.00;102487.19;5072107;28;20015;-58
2022/07/11 06:13:32;;;;;;;;;;;;;;;17.53;100.00;102485.16;5072015;28;19924;-58
2022/07/11 06:15:58;;;;;;;;;;;;;;;17.56;100.00;102476.09;5072452;28;19917;-58
2022/07/11 06:18:23;;;;;;;;;;;;;;;17.63;100.00;102486.44;5072220;28;19966;-58
2022/07/11 06:20:49;;;;;;;;;;;;;;;17.74;100.00;102480.56;5072107;28;20257;-58
2022/07/11 06:23:14;;;;;;;;;;;;;;;17.80;100.00;102469.56;5071933;28;19916;-59
2022/07/11 06:25:39;;;;;;;;;;;;;;;17.84;100.00;102468.44;5054113;28;20335;-58
2022/07/11 06:28:05;;;;;;;;;;;;;;;17.83;100.00;102466.72;5037484;28;19955;-58
2022/07/11 06:30:31;;;;;;;;;;;;;;;17.83;100.00;102471.22;5071784;28;19974;-58
2022/07/11 06:32:56;;;;;;;;;;;;;;;17.77;100.00;102469.69;5072004;28;19913;-58
2022/07/11 06:35:22;;;;;;;;;;;;;;;17.84;100.00;102462.25;5072488;28;19917;-58
2022/07/11 06:37:47;;;;;;;;;;;;;;;17.91;100.00;102469.00;5071940;28;19912;-58
2022/07/11 06:40:13;;;;;;;;;;;;;;;17.95;100.00;102464.41;5071664;28;19942;-59
2022/07/11 06:42:38;;;;;;;;;;;;;;;17.98;100.00;102469.59;5071773;28;19981;-58
2022/07/11 06:45:03;;;;;;;;;;;;;;;18.17;100.00;102469.53;5037010;28;19959;-58
2022/07/11 06:47:29;;;;;;;;;;;;;;;18.17;100.00;102482.94;5071612;28;19916;-59
2022/07/11 06:49:54;;;;;;;;;;;;;;;18.16;100.00;102484.75;5053574;28;20006;-59
2022/07/11 06:52:19;;;;;;;;;;;;;;;18.09;100.00;102485.16;5054052;28;19916;-58
2022/07/11 06:54:45;;;;;;;;;;;;;;;18.01;100.00;102486.41;5071516;28;20058;-59
2022/07/11 06:57:10;;;;;;;;;;;;;;;17.89;100.00;102492.34;5071756;28;19943;-59
2022/07/11 06:59:35;;;;;;;;;;;;;;;18.01;100.00;102483.72;5071513;28;19917;-58
2022/07/11 07:02:01;;;;;;;;;;;;;;;18.05;100.00;102476.38;5039643;28;19917;-59
2022/07/11 07:04:26;;;;;;;;;;;;;;;18.29;100.00;102485.00;5075441;28;19938;-59
2022/07/11 07:06:51;;;;;;;;;;;;;;;18.39;100.00;102482.72;5057944;28;20390;-59
2022/07/11 07:09:16;;;;;;;;;;;;;;;18.53;100.00;102489.16;5075579;28;20372;-58
2022/07/11 07:11:42;;;;;;;;;;;;;;;18.50;100.00;102487.50;5075566;28;19952;-59
2022/07/11 07:14:07;;;;;;;;;;;;;;;18.45;100.00;102494.94;5075420;28;19959;-59
2022/07/11 07:16:32;;;;;;;;;;;;;;;18.34;100.00;102504.41;5075306;28;19924;-58
2022/07/11 07:18:57;;;;;;;;;;;;;;;18.26;100.00;102503.94;5075980;28;19931;-58
2022/07/11 07:21:22;;;;;;;;;;;;;;;18.25;100.00;102495.94;5075491;28;19923;-58
2022/07/11 07:23:48;;;;;;;;;;;;;;;18.41;100.00;102496.91;5075402;28;19923;-59
2022/07/11 07:26:13;;;;;;;;;;;;;;;18.31;100.00;102496.53;5057253;28;19973;-60
2022/07/11 07:28:39;;;;;;;;;;;;;;;18.23;100.00;102505.91;5057691;28;20019;-59
2022/07/11 07:31:05;;;;;;;;;;;;;;;18.15;100.00;102504.47;5075234;28;19912;-59
2022/07/11 07:33:30;;;;;;;;;;;;;;;18.32;100.00;102497.38;5057152;28;20360;-58
2022/07/11 07:35:56;;;;;;;;;;;;;;;18.52;100.00;102501.72;5075193;28;19913;-58
2022/07/11 07:38:21;;;;;;;;;;;;;;;18.46;100.00;102507.41;5075175;28;20376;-58
2022/07/11 07:40:46;;;;;;;;;;;;;;;18.40;100.00;102507.72;5057133;28;19913;-59
2022/07/11 07:43:11;;;;;;;;;;;;;;;18.47;100.00;102514.50;5057148;28;19916;-58
2022/07/11 07:45:37;;;;;;;;;;;;;;;18.66;100.00;102506.38;5074675;28;19928;-53
2022/07/11 07:48:02;;;;;;;;;;;;;;;18.79;100.00;102504.75;5057093;28;19917;-58
2022/07/11 07:50:28;;;;;;;;;;;;;;;19.03;100.00;102501.75;5074638;28;19927;-59
2022/07/11 07:52:54;;;;;;;;;;;;;;;19.06;100.00;102496.19;5075195;28;19951;-59
2022/07/11 07:55:19;;;;;;;;;;;;;;;19.24;100.00;102493.47;5056858;28;19967;-59
2022/07/11 07:57:44;;;;;;;;;;;;;;;19.23;100.00;102503.31;5074705;28;19924;-59
2022/07/11 08:02:54;;;;;;;;;;;;;;;19.25;100.00;102504.13;5075129;28;19970;-59
2022/07/11 08:05:19;;;;;;;;;;;;;;;19.20;100.00;102498.13;5056687;28;19924;-59
2022/07/11 08:07:44;;;;;;;;;;;;;;;19.30;100.00;102510.09;5074566;28;19954;-58
2022/07/11 08:10:10;;;;;;;;;;;;;;;19.28;100.00;102509.34;5074375;28;20363;-58
2022/07/11 08:12:35;;;;;;;;;;;;;;;19.05;100.00;102507.03;5073590;28;19917;-58
2022/07/11 08:15:00;;;;;;;;;;;;;;;18.87;100.00;102512.41;5056549;28;20364;-58
2022/07/11 08:17:26;;;;;;;;;;;;;;;18.72;100.00;102507.84;5056280;28;20260;-58
2022/07/11 08:19:51;;;;;;;;;;;;;;;18.74;100.00;102509.50;5074547;28;20049;-58
2022/07/11 08:22:16;;;;;;;;;;;;;;;18.86;100.00;102510.66;5074106;28;19917;-58
2022/07/11 08:24:41;;;;;;;;;;;;;;;19.11;100.00;102514.75;5073894;28;20356;-59
2022/07/11 08:27:06;;;;;;;;;;;;;;;19.04;100.00;102513.34;5074258;28;20377;-58
2022/07/11 08:29:32;;;;;;;;;;;;;;;18.98;100.00;102507.34;5074058;28;20287;-59
2022/07/11 08:31:57;;;;;;;;;;;;;;;19.13;100.00;102516.41;5055979;28;19920;-58
2022/07/11 08:34:22;;;;;;;;;;;;;;;19.37;100.00;102518.69;5056029;28;19923;-58
2022/07/11 08:36:47;;;;;;;;;;;;;;;19.52;100.00;102508.03;5056095;28;19920;-59
2022/07/11 08:39:13;;;;;;;;;;;;;;;19.60;100.00;102519.22;5056027;28;19917;-59
2022/07/11 08:41:42;;;;;;;;;;;;;;;19.75;100.00;102512.97;5073900;28;20379;-59
2022/07/11 08:44:07;;;;;;;;;;;;;;;19.59;100.00;102513.00;5073915;28;19921;-59
2022/07/11 08:46:33;;;;;;;;;;;;;;;19.56;100.00;102504.22;5073701;28;19927;-58
2022/07/11 08:48:59;;;;;;;;;;;;;;;19.83;100.00;102504.50;5055869;28;20367;-59
2022/07/11 08:51:27;;;;;;;;;;;;;;;20.04;100.00;102507.78;5055757;28;19921;-59
2022/07/11 08:53:52;;;;;;;;;;;;;;;20.08;100.00;102505.78;5073914;28;20398;-59
2022/07/11 08:56:19;;;;;;;;;;;;;;;20.05;99.79;102500.56;5073512;28;19920;-59
2022/07/11 08:58:45;;;;;;;;;;;;;;;20.21;100.00;102500.53;5073437;28;19921;-60
2022/07/11 09:01:11;;;;;;;;;;;;;;;20.49;96.99;102499.72;5073464;28;20295;-59
2022/07/11 09:03:37;;;;;;;;;;;;;;;20.59;96.72;102500.91;5073315;28;19995;-59
2022/07/11 09:06:02;;;;;;;;;;;;;;;20.80;96.53;102503.25;5073255;28;19921;-59
2022/07/11 09:08:28;;;;;;;;;;;;;;;20.95;94.85;102493.38;5073311;28;19916;-60
2022/07/11 09:10:53;;;;;;;;;;;;;;;20.86;95.20;102494.81;5073495;28;19917;-59
2022/07/11 09:13:18;;;;;;;;;;;;;;;21.11;93.50;102502.22;5073229;28;19962;-60
2022/07/11 09:15:45;;;;;;;;;;;;;;;21.19;93.08;102506.22;5073347;28;19968;-59
2022/07/11 09:18:26;;;;;;;;;;;;;;;20.67;93.65;102508.50;5073019;28;19912;-59
2022/07/11 09:26:19;;;;;;;;;;;;;;;20.66;94.03;102505.91;5073085;28;20444;-60
2022/07/11 09:28:58;;;;;;;;;;;;;;;20.94;93.46;102511.34;5073148;28;19952;-59
2022/07/11 09:31:23;;;;;;;;;;;;;;;21.32;90.73;102515.28;5055220;28;20334;-59
2022/07/11 09:34:02;;;;;;;;;;;;;;;21.56;92.12;102504.78;5055021;28;19937;-59
2022/07/11 09:36:35;;;;;;;;;;;;;;;21.84;90.34;102508.34;5072711;28;19913;-59
2022/07/11 09:39:01;;;;;;;;;;;;;;;22.41;85.69;102500.97;5072900;28;19916;-59
2022/07/11 09:41:26;;;;;;;;;;;;;;;22.61;87.93;102507.69;5072618;28;19940;-58
2022/07/11 09:43:51;;;;;;;;;;;;;;;22.28;86.28;102506.31;5072912;28;20295;-58
2022/07/11 09:46:23;;;;;;;;;;;;;;;22.31;85.44;102514.19;5072371;28;20387;-58
2022/07/11 09:48:48;;;;;;;;;;;;;;;22.17;86.84;102507.03;5054414;28;19916;-58
2022/07/11 09:51:19;;;;;;;;;;;;;;;21.99;86.19;102517.22;5054648;28;19993;-59
2022/07/11 09:53:57;;;;;;;;;;;;;;;21.84;87.44;102521.84;5072549;28;19925;-59
2022/07/11 09:56:41;;;;;;;;;;;;;;;21.63;85.80;102515.16;5072783;28;20269;-59
2022/07/11 09:59:08;;;;;;;;;;;;;;;21.39;89.15;102513.03;5072283;28;19913;-59
2022/07/11 10:01:34;;;;;;;;;;;;;;;21.63;89.75;102516.00;5072084;28;19913;-59
2022/07/11 10:03:59;;;;;;;;;;;;;;;22.05;85.28;102511.44;5054193;28;19928;-59
2022/07/11 10:06:25;;;;;;;;;;;;;;;22.31;82.79;102508.78;5072188;28;19981;-59
2022/07/11 10:08:51;;;;;;;;;;;;;;;22.17;83.18;102507.03;5037851;28;19916;-59
2022/07/11 10:11:16;;;;;;;;;;;;;;;22.41;82.48;102507.22;5053943;28;19963;-60
2022/07/11 10:13:41;;;;;;;;;;;;;;;23.75;76.06;102497.75;5072246;28;19924;-59
2022/07/11 10:16:12;;;;;;;;;;;;;;;23.95;77.73;102497.19;5072062;28;20375;-59
2022/07/11 10:18:45;;;;;;;;;;;;;;;24.26;73.33;102499.34;5071913;28;19924;-60
2022/07/11 10:21:15;;;;;;;;;;;;;;;24.55;73.28;102497.09;5072124;28;19913;-59
2022/07/11 10:24:04;;;;;;;;;;;;;;;24.54;73.47;102489.94;5071786;28;20261;-60
2022/07/11 10:26:35;;;;;;;;;;;;;;;24.95;72.02;102488.56;5045789;28;19916;-59
2022/07/11 10:29:23;;;;;;;;;;;;;;;25.47;74.27;102491.56;5071977;28;20374;-60
2022/07/11 10:32:04;;;;;;;;;;;;;;;25.33;70.96;102495.41;5063696;28;20046;-60
2022/07/11 10:34:29;;;;;;;;;;;;;;;24.94;69.76;102499.53;5071834;28;20400;-60
2022/07/11 10:36:58;;;;;;;;;;;;;;;24.62;74.77;102503.75;5053909;28;20026;-60
2022/07/11 10:39:27;;;;;;;;;;;;;;;24.76;71.05;102502.69;5054250;28;19912;-59
2022/07/11 10:41:53;;;;;;;;;;;;;;;25.18;68.82;102504.81;5072094;28;20290;-58
2022/07/11 10:44:18;;;;;;;;;;;;;;;25.07;70.76;102510.22;5053526;28;19920;-59
2022/07/11 10:46:45;;;;;;;;;;;;;;;25.87;65.81;102506.41;5053405;28;21276;-58
2022/07/11 10:49:14;;;;;;;;;;;;;;;26.29;63.73;102502.91;5071908;28;20262;-59
2022/07/11 10:51:42;;;;;;;;;;;;;;;26.41;61.24;102509.16;5071455;28;19916;-59
2022/07/11 10:54:27;;;;;;;;;;;;;;;27.62;59.50;102500.25;5053564;28;19919;-59
2022/07/11 10:57:00;;;;;;;;;;;;;;;28.42;51.12;102488.34;5053849;28;19916;-58
2022/07/11 10:59:25;;;;;;;;;;;;;;;28.28;47.18;102495.94;5071450;28;19919;-59
2022/07/11 11:02:10;;;;;;;;;;;;;;;28.03;47.40;102486.53;5071815;28;19917;-59
2022/07/11 11:04:45;;;;;;;;;;;;;;;27.30;47.89;102486.81;5071490;28;19913;-60
2022/07/11 11:07:28;;;;;;;;;;;;;;;27.34;51.21;102493.72;5071509;28;19912;-60
2022/07/11 11:09:54;;;;;;;;;;;;;;;27.88;50.47;102490.63;5071753;28;19997;-60
2022/07/11 11:12:20;;;;;;;;;;;;;;;27.68;46.67;102500.69;5071192;28;19967;-60
2022/07/11 11:14:45;;;;;;;;;;;;;;;27.06;49.20;102498.03;5071160;28;20109;-60
2022/07/11 11:17:29;;;;;;;;;;;;;;;27.12;49.65;102497.50;5053444;28;19924;-60
2022/07/11 11:19:55;;;;;;;;;;;;;;;27.63;47.01;102493.78;5071748;28;19913;-59
2022/07/11 11:22:21;;;;;;;;;;;;;;;27.93;45.75;102488.34;5053436;28;19969;-59
2022/07/11 11:24:52;;;;;;;;;;;;;;;27.96;45.74;102482.63;5071339;28;19960;-60
2022/07/11 11:27:21;;;;;;;;;;;;;;;28.15;43.30;102491.81;5071078;28;20429;-58
2022/07/11 11:29:47;;;;;;;;;;;;;;;28.39;44.39;102483.16;5053088;28;20342;-60
2022/07/11 11:32:12;;;;;;;;;;;;;;;29.46;42.66;102484.63;5071445;28;20485;-60
2022/07/11 11:34:38;;;;;;;;;;;;;;;29.31;41.36;102488.88;5053277;28;19966;-60
2022/07/11 11:37:04;;;;;;;;;;;;;;;29.23;42.43;102479.59;5071370;28;19919;-60
2022/07/11 11:39:33;;;;;;;;;;;;;;;29.22;41.66;102479.72;5071185;28;19948;-59
2022/07/11 11:42:04;;;;;;;;;;;;;;;29.27;40.57;102482.84;5071317;28;20323;-59
2022/07/11 11:44:29;;;;;;;;;;;;;;;29.47;41.41;102482.75;5071002;28;19924;-59
2022/07/11 11:46:54;;;;;;;;;;;;;;;28.44;43.58;102481.72;5071367;28;19924;-59
2022/07/11 11:49:20;;;;;;;;;;;;;;;27.78;44.79;102479.78;5074040;28;19916;-59
2022/07/11 11:51:46;;;;;;;;;;;;;;;27.45;47.34;102481.88;5074971;28;19951;-60
2022/07/11 11:54:20;;;;;;;;;;;;;;;27.25;48.74;102480.94;5056787;28;19916;-58
2022/07/11 11:56:45;;;;;;;;;;;;;;;26.55;50.65;102486.19;5074628;28;19916;-58
2022/07/11 11:59:12;;;;;;;;;;;;;;;26.58;50.78;102481.34;5056824;28;20393;-59
2022/07/11 12:01:38;;;;;;;;;;;;;;;27.05;48.46;102478.16;5056530;28;20826;-59
2022/07/11 12:04:05;;;;;;;;;;;;;;;26.92;49.21;102477.53;5074412;28;19916;-60
2022/07/11 12:06:35;;;;;;;;;;;;;;;27.22;48.70;102481.22;5074397;28;19975;-59
2022/07/11 12:09:00;;;;;;;;;;;;;;;27.70;46.91;102487.78;5056464;28;20013;-59
2022/07/11 12:11:26;;;;;;;;;;;;;;;28.25;45.27;102485.34;5074817;28;20336;-60
2022/07/11 12:13:58;;;;;;;;;;;;;;;28.52;47.08;102486.44;5056715;28;20391;-59
2022/07/11 12:16:41;;;;;;;;;;;;;;;29.36;43.67;102475.63;5074511;28;19912;-59
2022/07/11 12:19:10;;;;;;;;;;;;;;;29.02;45.23;102479.81;5074414;28;19917;-60
2022/07/11 12:21:36;;;;;;;;;;;;;;;28.25;49.67;102479.03;5056142;28;19916;-60
2022/07/11 12:24:03;;;;;;;;;;;;;;;28.31;46.57;102485.78;5074076;28;19919;-60
2022/07/11 12:26:29;;;;;;;;;;;;;;;28.43;48.62;102482.72;5074357;28;19916;-60
2022/07/11 12:29:05;;;;;;;;;;;;;;;28.36;46.54;102475.28;5074314;28;20022;-59
2022/07/11 12:31:43;;;;;;;;;;;;;;;27.73;48.29;102479.34;5073833;28;19920;-59
2022/07/11 12:34:08;;;;;;;;;;;;;;;28.22;48.58;102469.28;5073938;28;19916;-60
2022/07/11 12:36:33;;;;;;;;;;;;;;;28.87;45.54;102478.59;5056040;28;19965;-59